Terminal Aerodrome Forecast
Issued by NWS

Home | Current Version | Previous Version | Text Only | Print | Product List | Glossary Off
Versions: 1 2 3 4 5 6 7 8 9 10 11 12 13 14 15 16

819
FTUS43 KBIS 222336
TAFMOT
TAF
KMOT 222336Z 2300/2324 35014G23KT P6SM BKN090
     FM230300 35008KT P6SM BKN110
     FM231700 02013KT P6SM SCT090
     FM232300 05009KT P6SM FEW140=

USA.gov is the U.S. government's official web portal to all federal, state and local government web resources and services.